createdAt,value
2018-07-12T00:00:23.172Z,0
2018-07-12T00:01:22.894Z,0
2018-07-12T00:02:23.151Z,0
2018-07-12T00:03:23.135Z,0
2018-07-12T00:04:23.124Z,0
2018-07-12T00:05:23.124Z,0
2018-07-12T00:06:23.107Z,0
2018-07-12T00:07:22.589Z,0
2018-07-12T00:08:23.098Z,0
2018-07-12T00:09:23.083Z,0
2018-07-12T00:10:23.075Z,0
2018-07-12T00:11:23.062Z,0
2018-07-12T00:12:22.804Z,0
2018-07-12T00:13:23.058Z,0
2018-07-12T00:14:22.805Z,0
2018-07-12T00:15:23.032Z,0
2018-07-12T00:16:22.782Z,0
2018-07-12T00:17:23.024Z,0
2018-07-12T00:18:22.753Z,0
2018-07-12T00:19:23.008Z,0
2018-07-12T00:20:22.993Z,0
2018-07-12T00:21:22.738Z,0
2018-07-12T00:22:22.980Z,0
2018-07-12T00:23:22.978Z,0
2018-07-12T00:24:22.974Z,0
2018-07-12T00:25:22.700Z,0
2018-07-12T00:26:22.951Z,0
2018-07-12T00:27:22.678Z,0
2018-07-12T00:28:22.673Z,0
2018-07-12T00:29:22.661Z,0
2018-07-12T00:30:22.918Z,0
2018-07-12T00:31:22.654Z,0
2018-07-12T00:32:22.898Z,0
2018-07-12T00:33:22.905Z,0
2018-07-12T00:34:22.896Z,0
2018-07-12T00:35:22.366Z,0
2018-07-12T00:36:22.883Z,0
2018-07-12T00:37:22.863Z,0
2018-07-12T00:38:22.850Z,0
2018-07-12T00:39:22.848Z,0
2018-07-12T00:40:22.585Z,0
2018-07-12T00:41:22.832Z,0
2018-07-12T00:42:22.826Z,0
2018-07-12T00:43:22.823Z,0
2018-07-12T00:44:22.814Z,0
2018-07-12T00:45:22.541Z,0
2018-07-12T00:46:22.538Z,0
2018-07-12T00:47:22.522Z,0
2018-07-12T00:48:22.772Z,0
2018-07-12T00:49:22.767Z,0
2018-07-12T00:50:22.770Z,0
2018-07-12T00:51:22.753Z,0
2018-07-12T00:52:22.747Z,0
2018-07-12T00:53:22.741Z,0
2018-07-12T00:54:22.465Z,0
2018-07-12T00:55:22.733Z,0
2018-07-12T00:56:22.704Z,0
2018-07-12T00:57:22.705Z,0
2018-07-12T00:58:22.704Z,0
2018-07-12T00:59:22.686Z,0
2018-07-12T01:00:22.685Z,0
2018-07-12T01:01:22.414Z,0
2018-07-12T01:02:22.673Z,0
2018-07-12T01:03:22.671Z,0
2018-07-12T01:04:22.662Z,0
2018-07-12T01:05:22.389Z,0
2018-07-12T01:06:22.637Z,0
2018-07-12T01:07:22.634Z,0
2018-07-12T01:08:22.622Z,0
2018-07-12T01:09:22.621Z,0
2018-07-12T01:10:22.601Z,0
2018-07-12T01:11:22.348Z,0
2018-07-12T01:12:22.333Z,0
2018-07-12T01:13:22.591Z,0
2018-07-12T01:14:22.577Z,0
2018-07-12T01:15:22.575Z,0
2018-07-12T01:16:22.299Z,0
2018-07-12T01:17:22.557Z,0
2018-07-12T01:18:22.543Z,0
2018-07-12T01:19:22.535Z,0
2018-07-12T01:20:22.526Z,0
2018-07-12T01:21:22.517Z,0
2018-07-12T01:22:22.266Z,0
2018-07-12T01:23:21.991Z,0
2018-07-12T01:24:22.497Z,0
2018-07-12T01:25:22.495Z,0
2018-07-12T01:26:22.223Z,0
2018-07-12T01:27:22.471Z,0
2018-07-12T01:28:22.468Z,0
2018-07-12T01:29:22.204Z,0
2018-07-12T01:30:22.451Z,0
2018-07-12T01:31:22.448Z,0
2018-07-12T01:32:22.174Z,0
2018-07-12T01:33:22.422Z,0
2018-07-12T01:34:22.423Z,0
2018-07-12T01:35:22.409Z,0
2018-07-12T01:36:22.311Z,0
2018-07-12T01:37:22.411Z,0
2018-07-12T01:38:22.396Z,0
2018-07-12T01:39:22.124Z,0
2018-07-12T01:40:22.382Z,0
2018-07-12T01:41:22.104Z,0
2018-07-12T01:42:22.375Z,0
2018-07-12T01:43:22.350Z,0
2018-07-12T01:44:22.090Z,0
2018-07-12T01:45:22.081Z,0
2018-07-12T01:46:22.078Z,0
2018-07-12T01:47:22.328Z,0
2018-07-12T01:48:22.320Z,0
2018-07-12T01:49:22.046Z,0
2018-07-12T01:50:22.293Z,0
2018-07-12T01:51:22.285Z,0
2018-07-12T01:52:22.283Z,0
2018-07-12T01:53:22.024Z,0
2018-07-12T01:54:21.762Z,0
2018-07-12T01:55:22.003Z,0
2018-07-12T01:56:21.999Z,0
2018-07-12T01:57:21.987Z,0
2018-07-12T01:58:22.234Z,0
2018-07-12T01:59:22.231Z,0
2018-07-12T02:00:22.232Z,0
2018-07-12T02:01:22.223Z,0
2018-07-12T02:02:22.211Z,0
2018-07-12T02:03:22.194Z,0
2018-07-12T02:04:21.939Z,0
2018-07-12T02:05:22.190Z,0
2018-07-12T02:06:21.920Z,0
2018-07-12T02:07:21.911Z,0
2018-07-12T02:08:22.160Z,0
2018-07-12T02:09:21.899Z,0
2018-07-12T02:10:22.152Z,0
2018-07-12T02:11:22.140Z,0
2018-07-12T02:12:21.872Z,0
2018-07-12T02:13:22.135Z,0
2018-07-12T02:14:21.606Z,0
2018-07-12T02:15:21.338Z,0
2018-07-12T02:16:21.584Z,0
2018-07-12T02:17:22.096Z,0
2018-07-12T02:18:22.086Z,0
2018-07-12T02:19:21.830Z,0
2018-07-12T02:20:22.080Z,0
2018-07-12T02:21:22.059Z,0
2018-07-12T02:22:22.059Z,0
2018-07-12T02:23:22.049Z,0
2018-07-12T02:24:22.035Z,0
2018-07-12T02:25:22.035Z,0
2018-07-12T02:26:22.025Z,0
2018-07-12T02:27:21.756Z,0
2018-07-12T02:28:22.013Z,0
2018-07-12T02:29:21.743Z,0
2018-07-12T02:30:21.995Z,0
2018-07-12T02:31:21.733Z,0
2018-07-12T02:32:21.985Z,0
2018-07-12T02:33:21.466Z,0
2018-07-12T02:34:21.725Z,0
2018-07-12T02:35:22.250Z,0
2018-07-12T02:36:21.706Z,0
2018-07-12T02:37:21.948Z,0
2018-07-12T02:38:21.675Z,0
2018-07-12T02:39:21.680Z,0
2018-07-12T02:40:21.924Z,0
2018-07-12T02:41:21.917Z,0
2018-07-12T02:42:21.649Z,0
2018-07-12T02:43:21.900Z,0
2018-07-12T02:44:21.894Z,0
2018-07-12T02:45:21.883Z,0
2018-07-12T02:46:21.359Z,0
2018-07-12T02:47:21.353Z,0
2018-07-12T02:48:21.609Z,0
2018-07-12T02:49:21.849Z,0
2018-07-12T02:50:21.341Z,0
2018-07-12T02:51:21.578Z,0
2018-07-12T02:52:21.824Z,0
2018-07-12T02:53:21.826Z,0
2018-07-12T02:54:21.824Z,0
2018-07-12T02:55:21.808Z,0
2018-07-12T02:56:21.292Z,0
2018-07-12T02:57:21.800Z,0
2018-07-12T02:58:21.267Z,0
2018-07-12T02:59:21.777Z,0
2018-07-12T03:00:21.520Z,0
2018-07-12T03:01:21.499Z,0
2018-07-12T03:02:21.505Z,0
2018-07-12T03:03:21.748Z,0
2018-07-12T03:04:21.499Z,0
2018-07-12T03:05:21.734Z,0
2018-07-12T03:06:21.721Z,0
2018-07-12T03:07:21.470Z,0
2018-07-12T03:08:21.450Z,0
2018-07-12T03:09:21.451Z,0
2018-07-12T03:10:21.696Z,0
2018-07-12T03:11:21.442Z,0
2018-07-12T03:12:21.677Z,0
2018-07-12T03:13:21.674Z,0
2018-07-12T03:14:21.410Z,0
2018-07-12T03:15:21.659Z,0
2018-07-12T03:16:21.652Z,0
2018-07-12T03:17:21.461Z,0
2018-07-12T03:18:21.383Z,0
2018-07-12T03:19:21.634Z,0
2018-07-12T03:20:21.637Z,0
2018-07-12T03:21:21.106Z,0
2018-07-12T03:22:21.602Z,0
2018-07-12T03:23:21.339Z,0
2018-07-12T03:24:21.341Z,0
2018-07-12T03:25:21.583Z,0
2018-07-12T03:26:21.577Z,0
2018-07-12T03:27:21.565Z,5
2018-07-12T03:28:21.560Z,5
2018-07-12T03:29:21.556Z,5
2018-07-12T03:30:21.559Z,5
2018-07-12T03:31:21.289Z,5
2018-07-12T03:32:21.276Z,5
2018-07-12T03:33:21.529Z,5
2018-07-12T03:34:21.534Z,10
2018-07-12T03:35:21.511Z,10
2018-07-12T03:36:21.496Z,10
2018-07-12T03:37:21.240Z,10
2018-07-12T03:38:21.225Z,15
2018-07-12T03:39:21.228Z,15
2018-07-12T03:40:20.983Z,15
2018-07-12T03:41:21.233Z,15
2018-07-12T03:42:21.457Z,15
2018-07-12T03:43:21.447Z,20
2018-07-12T03:44:21.181Z,20
2018-07-12T03:45:21.433Z,20
2018-07-12T03:46:21.428Z,20
2018-07-12T03:47:21.433Z,20
2018-07-12T03:48:21.411Z,25
2018-07-12T03:49:20.888Z,25
2018-07-12T03:50:20.923Z,25
2018-07-12T03:51:21.389Z,25
2018-07-12T03:52:21.131Z,30
2018-07-12T03:53:21.116Z,30
2018-07-12T03:54:20.852Z,30
2018-07-12T03:55:21.109Z,35
2018-07-12T03:56:21.098Z,35
2018-07-12T03:57:21.081Z,40
2018-07-12T03:58:21.341Z,45
2018-07-12T03:59:21.093Z,50
2018-07-12T04:00:21.068Z,55
2018-07-12T04:01:21.321Z,60
2018-07-12T04:02:21.318Z,60
2018-07-12T04:03:21.044Z,65
2018-07-12T04:04:21.292Z,65
2018-07-12T04:05:21.032Z,70
2018-07-12T04:06:21.025Z,70
2018-07-12T04:07:21.267Z,70
2018-07-12T04:08:21.011Z,75
2018-07-12T04:09:20.996Z,75
2018-07-12T04:10:21.252Z,70
2018-07-12T04:11:20.988Z,70
2018-07-12T04:12:21.235Z,65
2018-07-12T04:13:21.221Z,65
2018-07-12T04:14:20.971Z,65
2018-07-12T04:15:21.217Z,65
2018-07-12T04:16:20.696Z,65
2018-07-12T04:17:20.944Z,65
2018-07-12T04:18:20.963Z,60
2018-07-12T04:19:21.227Z,60
2018-07-12T04:20:20.912Z,60
2018-07-12T04:21:20.912Z,60
2018-07-12T04:22:20.899Z,60
2018-07-12T04:23:21.155Z,60
2018-07-12T04:24:20.888Z,60
2018-07-12T04:25:20.879Z,60
2018-07-12T04:26:21.139Z,60
2018-07-12T04:27:20.866Z,55
2018-07-12T04:28:21.115Z,60
2018-07-12T04:29:21.111Z,55
2018-07-12T04:30:20.848Z,60
2018-07-12T04:31:21.099Z,60
2018-07-12T04:32:21.101Z,65
2018-07-12T04:33:20.314Z,70
2018-07-12T04:34:21.085Z,75
2018-07-12T04:35:20.821Z,85
2018-07-12T04:36:21.066Z,100
2018-07-12T04:37:21.057Z,115
2018-07-12T04:38:20.273Z,130
2018-07-12T04:39:21.032Z,130
2018-07-12T04:40:21.039Z,130
2018-07-12T04:41:21.036Z,130
2018-07-12T04:42:20.756Z,135
2018-07-12T04:43:20.760Z,135
2018-07-12T04:44:20.757Z,140
2018-07-12T04:45:20.735Z,140
2018-07-12T04:46:20.737Z,145
2018-07-12T04:47:20.724Z,150
2018-07-12T04:48:20.973Z,150
2018-07-12T04:49:20.719Z,145
2018-07-12T04:50:20.954Z,145
2018-07-12T04:51:21.350Z,135
2018-07-12T04:52:20.696Z,125
2018-07-12T04:53:20.691Z,120
2018-07-12T04:54:20.931Z,110
2018-07-12T04:55:20.711Z,105
2018-07-12T04:56:20.923Z,100
2018-07-12T04:57:20.648Z,100
2018-07-12T04:58:21.787Z,95
2018-07-12T04:59:20.648Z,95
2018-07-12T05:00:20.629Z,100
2018-07-12T05:01:20.887Z,100
2018-07-12T05:02:20.880Z,105
2018-07-12T05:03:20.882Z,115
2018-07-12T05:04:20.650Z,115
2018-07-12T05:05:20.856Z,120
2018-07-12T05:06:20.339Z,120
2018-07-12T05:07:20.582Z,115
2018-07-12T05:08:20.683Z,115
2018-07-12T05:09:20.312Z,110
2018-07-12T05:10:20.575Z,110
2018-07-12T05:11:20.558Z,105
2018-07-12T05:12:20.556Z,95
2018-07-12T05:13:20.813Z,85
2018-07-12T05:14:20.795Z,80
2018-07-12T05:15:20.522Z,70
2018-07-12T05:16:20.376Z,75
2018-07-12T05:17:20.517Z,75
2018-07-12T05:18:20.512Z,75
2018-07-12T05:19:20.501Z,85
2018-07-12T05:20:20.564Z,95
2018-07-12T05:21:20.496Z,105
2018-07-12T05:22:20.750Z,110
2018-07-12T05:23:20.468Z,115
2018-07-12T05:24:20.209Z,125
2018-07-12T05:25:20.725Z,130
2018-07-12T05:26:20.450Z,140
2018-07-12T05:27:19.931Z,145
2018-07-12T05:28:19.930Z,145
2018-07-12T05:29:20.436Z,145
2018-07-12T05:30:20.689Z,145
2018-07-12T05:31:20.426Z,140
2018-07-12T05:32:20.677Z,130
2018-07-12T05:33:20.407Z,125
2018-07-12T05:34:20.405Z,130
2018-07-12T05:35:20.650Z,140
2018-07-12T05:36:20.391Z,150
2018-07-12T05:37:20.642Z,155
2018-07-12T05:38:20.627Z,145
2018-07-12T05:39:20.619Z,120
2018-07-12T05:40:20.360Z,100
2018-07-12T05:41:20.615Z,105
2018-07-12T05:42:20.347Z,120
2018-07-12T05:43:20.081Z,115
2018-07-12T05:44:20.335Z,100
2018-07-12T05:45:20.582Z,100
2018-07-12T05:46:20.334Z,110
2018-07-12T05:47:20.580Z,115
2018-07-12T05:48:20.312Z,120
2018-07-12T05:49:20.305Z,125
2018-07-12T05:50:20.558Z,130
2018-07-12T05:51:20.290Z,125
2018-07-12T05:52:20.289Z,115
2018-07-12T05:53:20.031Z,120
2018-07-12T05:54:20.015Z,125
2018-07-12T05:55:20.265Z,130
2018-07-12T05:56:20.265Z,150
2018-07-12T05:57:20.515Z,155
2018-07-12T05:58:20.500Z,165
2018-07-12T05:59:20.495Z,180
2018-07-12T06:00:20.490Z,215
2018-07-12T06:01:20.492Z,225
2018-07-12T06:02:20.223Z,220
2018-07-12T06:03:19.707Z,215
2018-07-12T06:04:20.208Z,225
2018-07-12T06:05:20.213Z,230
2018-07-12T06:06:20.453Z,200
2018-07-12T06:07:20.455Z,185
2018-07-12T06:08:20.186Z,170
2018-07-12T06:09:20.452Z,170
2018-07-12T06:10:19.924Z,215
2018-07-12T06:11:20.171Z,215
2018-07-12T06:12:20.155Z,190
2018-07-12T06:13:20.573Z,175
2018-07-12T06:14:20.414Z,200
2018-07-12T06:15:20.139Z,215
2018-07-12T06:16:20.311Z,215
2018-07-12T06:17:20.142Z,225
2018-07-12T06:18:20.130Z,205
2018-07-12T06:19:20.372Z,180
2018-07-12T06:20:19.859Z,170
2018-07-12T06:21:19.857Z,175
2018-07-12T06:22:20.363Z,170
2018-07-12T06:23:20.354Z,165
2018-07-12T06:24:20.346Z,125
2018-07-12T06:25:20.352Z,140
2018-07-12T06:26:19.823Z,150
2018-07-12T06:27:20.329Z,130
2018-07-12T06:28:19.809Z,140
2018-07-12T06:29:20.063Z,150
2018-07-12T06:30:20.322Z,160
2018-07-12T06:31:20.307Z,175
2018-07-12T06:32:20.310Z,195
2018-07-12T06:33:20.038Z,190
2018-07-12T06:34:20.294Z,195
2018-07-12T06:35:19.778Z,190
2018-07-12T06:36:20.023Z,185
2018-07-12T06:37:20.302Z,170
2018-07-12T06:38:20.269Z,185
2018-07-12T06:39:20.263Z,185
2018-07-12T06:40:20.007Z,195
2018-07-12T06:41:20.001Z,215
2018-07-12T06:42:19.990Z,225
2018-07-12T06:43:19.985Z,260
2018-07-12T06:44:20.036Z,245
2018-07-12T06:45:20.249Z,210
2018-07-12T06:46:20.222Z,200
2018-07-12T06:47:19.968Z,220
2018-07-12T06:48:20.211Z,200
2018-07-12T06:49:19.691Z,175
2018-07-12T06:50:20.200Z,160
2018-07-12T06:51:20.199Z,160
2018-07-12T06:52:20.195Z,180
2018-07-12T06:53:19.931Z,200
2018-07-12T06:54:20.178Z,225
2018-07-12T06:55:19.920Z,215
2018-07-12T06:56:19.917Z,220
2018-07-12T06:57:20.163Z,260
2018-07-12T06:58:19.900Z,350
2018-07-12T06:59:19.901Z,450
2018-07-12T07:00:19.893Z,405
2018-07-12T07:01:19.887Z,385
2018-07-12T07:02:19.882Z,350
2018-07-12T07:03:20.176Z,240
2018-07-12T07:04:19.872Z,230
2018-07-12T07:05:19.865Z,160
2018-07-12T07:06:20.123Z,150
2018-07-12T07:07:20.114Z,165
2018-07-12T07:08:19.333Z,185
2018-07-12T07:09:20.119Z,225
2018-07-12T07:10:20.102Z,205
2018-07-12T07:11:20.090Z,155
2018-07-12T07:12:20.090Z,145
2018-07-12T07:13:19.828Z,160
2018-07-12T07:14:20.083Z,160
2018-07-12T07:15:20.076Z,200
2018-07-12T07:16:19.562Z,265
2018-07-12T07:17:19.807Z,345
2018-07-12T07:18:20.062Z,365
2018-07-12T07:19:19.809Z,395
2018-07-12T07:20:20.139Z,470
2018-07-12T07:21:19.835Z,450
2018-07-12T07:22:19.519Z,475
2018-07-12T07:23:20.034Z,470
2018-07-12T07:24:19.773Z,435
2018-07-12T07:25:20.028Z,455
2018-07-12T07:26:19.657Z,555
2018-07-12T07:27:19.758Z,570
2018-07-12T07:28:20.007Z,520
2018-07-12T07:29:19.497Z,575
2018-07-12T07:30:19.492Z,650
2018-07-12T07:31:19.743Z,650
2018-07-12T07:32:19.510Z,715
2018-07-12T07:33:19.217Z,710
2018-07-12T07:34:19.863Z,600
2018-07-12T07:35:19.723Z,600
2018-07-12T07:36:19.727Z,570
2018-07-12T07:37:19.972Z,600
2018-07-12T07:38:19.459Z,605
2018-07-12T07:39:19.710Z,670
2018-07-12T07:40:19.959Z,445
2018-07-12T07:41:19.967Z,345
2018-07-12T07:42:19.439Z,355
2018-07-12T07:43:19.825Z,400
2018-07-12T07:44:19.696Z,375
2018-07-12T07:45:19.959Z,310
2018-07-12T07:46:19.951Z,255
2018-07-12T07:47:19.687Z,270
2018-07-12T07:48:19.682Z,310
2018-07-12T07:49:20.253Z,335
2018-07-12T07:50:19.674Z,330
2018-07-12T07:51:19.677Z,370
2018-07-12T07:52:19.721Z,405
2018-07-12T07:53:19.416Z,430
2018-07-12T07:54:19.660Z,445
2018-07-12T07:55:19.663Z,475
2018-07-12T07:56:19.925Z,450
2018-07-12T07:57:19.850Z,420
2018-07-12T07:58:19.649Z,430
2018-07-12T07:59:19.403Z,475
2018-07-12T08:00:19.392Z,520
2018-07-12T08:01:19.907Z,550
2018-07-12T08:02:19.134Z,585
2018-07-12T08:03:19.988Z,560
2018-07-12T08:04:19.641Z,535
2018-07-12T08:05:19.635Z,515
2018-07-12T08:06:19.639Z,495
2018-07-12T08:07:19.630Z,495
2018-07-12T08:08:19.896Z,495
2018-07-12T08:09:19.628Z,510
2018-07-12T08:10:19.887Z,530
2018-07-12T08:11:19.896Z,555
2018-07-12T08:12:19.620Z,550
2018-07-12T08:13:19.625Z,515
2018-07-12T08:14:19.615Z,485
2018-07-12T08:15:19.608Z,490
2018-07-12T08:16:20.004Z,490
2018-07-12T08:17:19.610Z,490
2018-07-12T08:18:19.606Z,525
2018-07-12T08:19:19.858Z,545
2018-07-12T08:20:19.857Z,530
2018-07-12T08:21:19.859Z,500
2018-07-12T08:22:19.868Z,480
2018-07-12T08:23:19.844Z,470
2018-07-12T08:24:19.337Z,470
2018-07-12T08:25:19.381Z,470
2018-07-12T08:26:19.590Z,470
2018-07-12T08:27:19.330Z,475
2018-07-12T08:28:19.580Z,470
2018-07-12T08:29:19.842Z,465
2018-07-12T08:30:19.379Z,470
2018-07-12T08:31:19.944Z,460
2018-07-12T08:32:19.836Z,455
2018-07-12T08:33:19.653Z,445
2018-07-12T08:34:19.832Z,455
2018-07-12T08:35:19.836Z,445
2018-07-12T08:36:20.075Z,455
2018-07-12T08:37:19.817Z,465
2018-07-12T08:38:19.565Z,455
2018-07-12T08:39:19.812Z,415
2018-07-12T08:40:19.553Z,385
2018-07-12T08:41:19.555Z,375
2018-07-12T08:42:19.592Z,360
2018-07-12T08:43:19.811Z,305
2018-07-12T08:44:19.800Z,235
2018-07-12T08:45:19.543Z,180
2018-07-12T08:46:19.477Z,155
2018-07-12T08:47:19.799Z,130
2018-07-12T08:48:19.074Z,115
2018-07-12T08:49:19.793Z,125
2018-07-12T08:50:19.780Z,170
2018-07-12T08:51:19.526Z,230
2018-07-12T08:52:19.790Z,300
2018-07-12T08:53:19.964Z,365
2018-07-12T08:54:19.262Z,400
2018-07-12T08:55:19.826Z,435
2018-07-12T08:56:19.768Z,460
2018-07-12T08:57:19.508Z,460
2018-07-12T08:58:19.756Z,445
2018-07-12T08:59:19.760Z,425
2018-07-12T09:00:19.787Z,445
2018-07-12T09:01:19.748Z,460
2018-07-12T09:02:19.492Z,470
2018-07-12T09:03:19.750Z,475
2018-07-12T09:04:19.480Z,465
2018-07-12T09:05:19.746Z,435
2018-07-12T09:06:19.478Z,430
2018-07-12T09:07:19.214Z,430
2018-07-12T09:08:19.728Z,405
2018-07-12T09:09:19.724Z,360
2018-07-12T09:10:19.461Z,295
2018-07-12T09:11:19.208Z,275
2018-07-12T09:12:19.513Z,265
2018-07-12T09:13:19.713Z,290
2018-07-12T09:14:19.448Z,345
2018-07-12T09:15:19.457Z,385
2018-07-12T09:16:19.701Z,440
2018-07-12T09:17:19.444Z,505
2018-07-12T09:18:19.696Z,500
2018-07-12T09:19:19.685Z,470
2018-07-12T09:20:19.694Z,415
2018-07-12T09:21:19.170Z,365
2018-07-12T09:22:19.426Z,345
2018-07-12T09:23:19.677Z,395
2018-07-12T09:24:18.899Z,460
2018-07-12T09:25:19.677Z,505
2018-07-12T09:26:19.424Z,385
2018-07-12T09:27:19.700Z,295
2018-07-12T09:28:19.674Z,285
2018-07-12T09:29:20.121Z,280
2018-07-12T09:30:19.405Z,250
2018-07-12T09:31:19.151Z,250
2018-07-12T09:32:19.395Z,225
2018-07-12T09:33:19.391Z,205
2018-07-12T09:34:19.408Z,185
2018-07-12T09:35:19.642Z,230
2018-07-12T09:36:19.383Z,320
2018-07-12T09:37:19.380Z,430
2018-07-12T09:38:19.383Z,485
2018-07-12T09:39:19.640Z,500
2018-07-12T09:40:19.374Z,440
2018-07-12T09:41:19.629Z,390
2018-07-12T09:42:19.104Z,385
2018-07-12T09:43:19.398Z,365
2018-07-12T09:44:19.361Z,330
2018-07-12T09:45:19.402Z,290
2018-07-12T09:46:19.614Z,280
2018-07-12T09:47:19.878Z,295
2018-07-12T09:48:19.409Z,290
2018-07-12T09:49:20.879Z,285
2018-07-12T09:50:19.343Z,280
2018-07-12T09:51:19.598Z,270
2018-07-12T09:52:19.331Z,250
2018-07-12T09:53:19.591Z,230
2018-07-12T09:54:19.331Z,235
2018-07-12T09:55:19.326Z,245
2018-07-12T09:56:20.588Z,235
2018-07-12T09:57:19.313Z,245
2018-07-12T09:58:19.564Z,255
2018-07-12T09:59:19.569Z,255
2018-07-12T10:00:19.313Z,260
2018-07-12T10:01:18.857Z,280
2018-07-12T10:02:19.302Z,280
2018-07-12T10:03:19.555Z,265
2018-07-12T10:04:19.549Z,240
2018-07-12T10:05:19.297Z,220
2018-07-12T10:06:19.550Z,230
2018-07-12T10:07:19.559Z,225
2018-07-12T10:08:19.281Z,215
2018-07-12T10:09:19.524Z,200
2018-07-12T10:10:19.536Z,195
2018-07-12T10:11:19.531Z,185
2018-07-12T10:12:18.751Z,200
2018-07-12T10:13:19.522Z,210
2018-07-12T10:14:19.263Z,190
2018-07-12T10:15:19.515Z,195
2018-07-12T10:16:19.511Z,240
2018-07-12T10:17:19.519Z,285
2018-07-12T10:18:19.256Z,310
2018-07-12T10:19:19.240Z,335
2018-07-12T10:20:18.976Z,315
2018-07-12T10:21:19.244Z,310
2018-07-12T10:22:18.968Z,310
2018-07-12T10:23:19.477Z,325
2018-07-12T10:24:19.488Z,350
2018-07-12T10:25:19.215Z,355
2018-07-12T10:26:18.962Z,330
2018-07-12T10:27:18.954Z,300
2018-07-12T10:28:19.466Z,330
2018-07-12T10:29:19.457Z,370
2018-07-12T10:30:19.465Z,335
2018-07-12T10:31:19.454Z,325
2018-07-12T10:32:19.188Z,335
2018-07-12T10:33:19.193Z,385
2018-07-12T10:34:18.677Z,475
2018-07-12T10:35:19.434Z,510
2018-07-12T10:36:19.434Z,465
2018-07-12T10:37:18.913Z,415
2018-07-12T10:38:18.660Z,425
2018-07-12T10:39:19.425Z,445
2018-07-12T10:40:18.903Z,480
2018-07-12T10:41:18.649Z,545
2018-07-12T10:42:19.156Z,570
2018-07-12T10:43:18.906Z,540
2018-07-12T10:44:18.894Z,515
2018-07-12T10:45:19.409Z,520
2018-07-12T10:46:19.412Z,480
2018-07-12T10:47:19.143Z,400
2018-07-12T10:48:19.143Z,385
2018-07-12T10:49:19.393Z,340
2018-07-12T10:50:18.871Z,340
2018-07-12T10:51:18.875Z,350
2018-07-12T10:52:19.385Z,300
2018-07-12T10:53:19.122Z,275
2018-07-12T10:54:19.112Z,280
2018-07-12T10:55:19.122Z,245
2018-07-12T10:56:19.117Z,225
2018-07-12T10:57:19.369Z,250
2018-07-12T10:58:19.369Z,250
2018-07-12T10:59:19.369Z,270
2018-07-12T11:00:18.840Z,285
2018-07-12T11:01:19.126Z,230
2018-07-12T11:02:18.832Z,200
2018-07-12T11:03:18.832Z,190
2018-07-12T11:04:18.835Z,175
2018-07-12T11:05:18.827Z,170
2018-07-12T11:06:19.337Z,180
2018-07-12T11:07:19.332Z,195
2018-07-12T11:08:18.819Z,205
2018-07-12T11:09:19.618Z,230
2018-07-12T11:10:18.817Z,250
2018-07-12T11:11:18.807Z,245
2018-07-12T11:12:19.072Z,260
2018-07-12T11:13:19.327Z,305
2018-07-12T11:14:19.059Z,275
2018-07-12T11:15:19.046Z,270
2018-07-12T11:16:18.785Z,325
2018-07-12T11:17:19.041Z,410
2018-07-12T11:18:19.037Z,460
2018-07-12T11:19:18.780Z,365
2018-07-12T11:20:18.256Z,280
2018-07-12T11:21:19.819Z,225
2018-07-12T11:22:19.298Z,240
2018-07-12T11:23:18.765Z,285
2018-07-12T11:24:19.277Z,330
2018-07-12T11:25:19.008Z,325
2018-07-12T11:26:19.284Z,300
2018-07-12T11:27:19.259Z,340
2018-07-12T11:28:19.561Z,420
2018-07-12T11:29:19.261Z,390
2018-07-12T11:30:19.211Z,475
2018-07-12T11:31:19.251Z,650
2018-07-12T11:32:18.737Z,705
2018-07-12T11:33:19.241Z,645
2018-07-12T11:34:18.983Z,525
2018-07-12T11:35:19.236Z,370
2018-07-12T11:36:19.558Z,290
2018-07-12T11:37:18.833Z,250
2018-07-12T11:38:18.717Z,280
2018-07-12T11:39:18.714Z,340
2018-07-12T11:40:18.983Z,345
2018-07-12T11:41:19.222Z,315
2018-07-12T11:42:19.214Z,265
2018-07-12T11:43:18.965Z,235
2018-07-12T11:44:19.214Z,195
2018-07-12T11:45:18.954Z,165
2018-07-12T11:46:19.204Z,160
2018-07-12T11:47:18.697Z,175
2018-07-12T11:48:19.199Z,160
2018-07-12T11:49:19.215Z,145
2018-07-12T11:50:19.200Z,145
2018-07-12T11:51:18.701Z,155
2018-07-12T11:52:19.200Z,140
2018-07-12T11:53:18.674Z,130
2018-07-12T11:54:18.935Z,145
2018-07-12T11:55:18.926Z,180
2018-07-12T11:56:18.665Z,270
2018-07-12T11:57:18.931Z,340
2018-07-12T11:58:18.661Z,395
2018-07-12T11:59:18.398Z,445
2018-07-12T12:00:19.162Z,490
2018-07-12T12:01:19.312Z,555
2018-07-12T12:02:18.898Z,540
2018-07-12T12:03:18.637Z,505
2018-07-12T12:04:19.155Z,425
2018-07-12T12:05:19.144Z,325
2018-07-12T12:06:19.157Z,300
2018-07-12T12:07:19.146Z,260
2018-07-12T12:08:18.884Z,235
2018-07-12T12:09:19.136Z,205
2018-07-12T12:10:19.141Z,230
2018-07-12T12:11:18.882Z,230
2018-07-12T12:12:18.876Z,235
2018-07-12T12:13:19.131Z,290
2018-07-12T12:14:18.880Z,385
2018-07-12T12:15:18.615Z,450
2018-07-12T12:16:18.608Z,375
2018-07-12T12:17:19.125Z,380
2018-07-12T12:18:19.119Z,370
2018-07-12T12:19:19.159Z,315
2018-07-12T12:20:18.856Z,270
2018-07-12T12:21:18.855Z,320
2018-07-12T12:22:19.114Z,330
2018-07-12T12:23:18.847Z,315
2018-07-12T12:24:19.147Z,310
2018-07-12T12:25:19.108Z,330
2018-07-12T12:26:18.595Z,310
2018-07-12T12:27:18.834Z,380
2018-07-12T12:28:18.579Z,485
2018-07-12T12:29:18.840Z,575
2018-07-12T12:30:19.094Z,560
2018-07-12T12:31:18.864Z,535
2018-07-12T12:32:18.832Z,480
2018-07-12T12:33:18.829Z,465
2018-07-12T12:34:18.840Z,430
2018-07-12T12:35:18.819Z,455
2018-07-12T12:36:19.087Z,445
2018-07-12T12:37:18.823Z,370
2018-07-12T12:38:18.816Z,335
2018-07-12T12:39:18.818Z,330
2018-07-12T12:40:18.815Z,410
2018-07-12T12:41:18.588Z,485
2018-07-12T12:42:19.075Z,510
2018-07-12T12:43:18.816Z,500
2018-07-12T12:44:18.553Z,440
2018-07-12T12:45:19.066Z,450
2018-07-12T12:46:18.551Z,460
2018-07-12T12:47:19.079Z,485
2018-07-12T12:48:18.555Z,550
2018-07-12T12:49:18.801Z,510
2018-07-12T12:50:18.549Z,510
2018-07-12T12:51:19.059Z,510
2018-07-12T12:52:18.548Z,485
2018-07-12T12:53:19.066Z,420
2018-07-12T12:54:18.543Z,360
2018-07-12T12:55:18.543Z,300
2018-07-12T12:56:18.800Z,280
2018-07-12T12:57:18.803Z,375
2018-07-12T12:58:18.803Z,445
2018-07-12T12:59:18.817Z,420
2018-07-12T13:00:19.459Z,440
2018-07-12T13:01:19.121Z,435
2018-07-12T13:02:18.812Z,415
2018-07-12T13:03:19.058Z,450
2018-07-12T13:04:19.061Z,485
2018-07-12T13:05:18.797Z,505
2018-07-12T13:06:18.809Z,465
2018-07-12T13:07:18.803Z,360
2018-07-12T13:08:19.198Z,290
2018-07-12T13:09:18.803Z,230
2018-07-12T13:10:18.804Z,170
2018-07-12T13:11:19.057Z,150
2018-07-12T13:12:19.080Z,160
2018-07-12T13:13:18.805Z,175
2018-07-12T13:14:18.807Z,195
2018-07-12T13:15:18.284Z,230
2018-07-12T13:16:18.804Z,300
2018-07-12T13:17:19.070Z,365
2018-07-12T13:18:18.794Z,280
2018-07-12T13:19:19.070Z,170
2018-07-12T13:20:19.059Z,150
2018-07-12T13:21:18.539Z,180
2018-07-12T13:22:18.544Z,285
2018-07-12T13:23:18.536Z,340
2018-07-12T13:24:19.058Z,365
2018-07-12T13:25:18.794Z,400
2018-07-12T13:26:18.284Z,465
2018-07-12T13:27:19.067Z,505
2018-07-12T13:28:18.586Z,465
2018-07-12T13:29:19.061Z,415
2018-07-12T13:30:19.067Z,330
2018-07-12T13:31:19.055Z,275
2018-07-12T13:32:19.050Z,230
2018-07-12T13:33:18.798Z,215
2018-07-12T13:34:19.074Z,205
2018-07-12T13:35:18.803Z,200
2018-07-12T13:36:18.537Z,195
2018-07-12T13:37:19.050Z,185
2018-07-12T13:38:18.788Z,170
2018-07-12T13:39:18.795Z,150
2018-07-12T13:40:19.055Z,120
2018-07-12T13:41:18.786Z,110
2018-07-12T13:42:18.532Z,110
2018-07-12T13:43:18.785Z,120
2018-07-12T13:44:18.528Z,165
2018-07-12T13:45:19.048Z,225
2018-07-12T13:46:18.783Z,260
2018-07-12T13:47:18.792Z,320
2018-07-12T13:48:18.531Z,355
2018-07-12T13:49:18.525Z,365
2018-07-12T13:50:19.054Z,350
2018-07-12T13:51:18.787Z,330
2018-07-12T13:52:18.776Z,310
2018-07-12T13:53:19.037Z,265
2018-07-12T13:54:19.052Z,210
2018-07-12T13:55:19.049Z,175
2018-07-12T13:56:18.790Z,150
2018-07-12T13:57:19.972Z,130
2018-07-12T13:58:18.958Z,120
2018-07-12T13:59:18.773Z,115
2018-07-12T14:00:18.785Z,115
2018-07-12T14:01:19.057Z,120
2018-07-12T14:02:18.511Z,140
2018-07-12T14:03:18.512Z,160